createdAt,value
2022-11-27T00:01:23.854Z,7.60
2022-11-27T00:03:51.551Z,7.60
2022-11-27T00:06:22.515Z,7.50
2022-11-27T00:08:50.057Z,7.40
2022-11-27T00:11:22.936Z,7.40
2022-11-27T00:13:56.945Z,7.30
2022-11-27T00:16:25.146Z,7.20
2022-11-27T00:18:52.827Z,7.10
2022-11-27T00:21:28.929Z,7.10
2022-11-27T00:23:58.322Z,7.10
2022-11-27T00:26:26.474Z,7.10
2022-11-27T00:28:56.201Z,7.10
2022-11-27T00:31:29.639Z,7.10
2022-11-27T00:33:58.959Z,7.00
2022-11-27T00:36:27.717Z,7.00
2022-11-27T00:38:54.899Z,7.10
2022-11-27T00:41:27.406Z,7.00
2022-11-27T00:43:54.823Z,7.00
2022-11-27T00:46:28.446Z,7.00
2022-11-27T00:49:00.308Z,7.00
2022-11-27T00:51:28.731Z,7.00
2022-11-27T00:53:56.410Z,6.90
2022-11-27T00:56:27.432Z,6.90
2022-11-27T00:58:55.032Z,6.90
2022-11-27T01:01:28.316Z,6.90
2022-11-27T01:03:57.303Z,6.80
2022-11-27T01:06:25.304Z,6.80
2022-11-27T01:08:52.938Z,6.80
2022-11-27T01:11:26.113Z,6.80
2022-11-27T01:13:55.499Z,6.80
2022-11-27T01:16:25.683Z,6.80
2022-11-27T01:18:56.651Z,6.80
2022-11-27T01:21:24.733Z,6.70
2022-11-27T01:23:52.226Z,6.70
2022-11-27T01:26:19.496Z,6.70
2022-11-27T01:28:47.260Z,6.70
2022-11-27T01:31:17.462Z,6.70
2022-11-27T01:33:45.869Z,6.70
2022-11-27T01:36:15.349Z,6.70
2022-11-27T01:38:43.186Z,6.70
2022-11-27T01:41:26.246Z,6.70
2022-11-27T01:43:59.760Z,6.70
2022-11-27T01:47:04.600Z,6.70
2022-11-27T01:49:38.699Z,6.70
2022-11-27T01:52:17.149Z,6.70
2022-11-27T01:54:56.029Z,6.70
2022-11-27T01:57:31.511Z,6.70
2022-11-27T02:00:00.762Z,6.70
2022-11-27T02:02:28.677Z,6.60
2022-11-27T02:04:55.991Z,6.60
2022-11-27T02:07:23.453Z,6.60
2022-11-27T02:09:51.243Z,6.60
2022-11-27T02:12:25.598Z,6.60
2022-11-27T02:15:14.528Z,6.50
2022-11-27T02:17:57.446Z,6.50
2022-11-27T02:20:39.584Z,6.50
2022-11-27T02:23:14.437Z,6.50
2022-11-27T02:26:02.244Z,6.50
2022-11-27T02:28:50.518Z,6.50
2022-11-27T02:31:25.091Z,6.40
2022-11-27T02:33:56.528Z,6.40
2022-11-27T02:36:30.526Z,6.40
2022-11-27T02:39:06.532Z,6.30
2022-11-27T02:41:49.703Z,6.30
2022-11-27T02:44:18.270Z,6.30
2022-11-27T02:46:47.067Z,6.30
2022-11-27T02:49:18.322Z,6.30
2022-11-27T02:51:51.781Z,6.20
2022-11-27T02:54:24.831Z,6.20
2022-11-27T02:56:54.193Z,6.20
2022-11-27T02:59:23.588Z,6.20
2022-11-27T03:01:58.791Z,6.10
2022-11-27T03:04:28.811Z,6.10
2022-11-27T03:07:01.589Z,6.10
2022-11-27T03:09:40.295Z,6.10
2022-11-27T03:12:10.424Z,6.10
2022-11-27T03:14:41.339Z,6.10
2022-11-27T03:17:52.671Z,6.10
2022-11-27T03:20:27.303Z,6.00
2022-11-27T03:22:58.010Z,6.00
2022-11-27T03:25:25.569Z,6.00
2022-11-27T03:28:01.604Z,5.90
2022-11-27T03:30:29.064Z,5.80
2022-11-27T03:32:56.558Z,5.80
2022-11-27T03:35:26.331Z,5.70
2022-11-27T03:37:54.977Z,5.70
2022-11-27T03:40:29.721Z,5.70
2022-11-27T03:43:12.207Z,5.70
2022-11-27T03:45:52.931Z,5.70
2022-11-27T03:48:31.361Z,5.70
2022-11-27T03:51:29.753Z,5.60
2022-11-27T03:54:05.912Z,5.60
2022-11-27T03:56:53.538Z,5.60
2022-11-27T03:59:31.550Z,5.60
2022-11-27T04:01:59.353Z,5.50
2022-11-27T04:04:26.737Z,5.50
2022-11-27T04:06:53.990Z,5.40
2022-11-27T04:09:21.115Z,5.40
2022-11-27T04:11:48.362Z,5.40
2022-11-27T04:14:15.380Z,5.30
2022-11-27T04:16:42.865Z,5.30
2022-11-27T04:19:10.066Z,5.30
2022-11-27T04:21:37.490Z,5.20
2022-11-27T04:24:04.749Z,5.20
2022-11-27T04:26:31.920Z,5.10
2022-11-27T04:28:59.640Z,5.10
2022-11-27T04:31:26.881Z,5.10
2022-11-27T04:33:54.087Z,5.10
2022-11-27T04:36:21.264Z,5.10
2022-11-27T04:38:48.489Z,5.00
2022-11-27T04:41:15.756Z,5.00
2022-11-27T04:43:43.081Z,5.00
2022-11-27T04:46:10.234Z,4.90
2022-11-27T04:48:37.524Z,4.90
2022-11-27T04:51:04.705Z,4.90
2022-11-27T04:53:31.973Z,4.80
2022-11-27T04:55:59.149Z,4.80
2022-11-27T04:58:26.341Z,4.80
2022-11-27T05:00:53.653Z,4.80
2022-11-27T05:03:21.193Z,4.70
2022-11-27T05:05:56.960Z,4.70
2022-11-27T05:08:25.520Z,4.70
2022-11-27T05:11:11.737Z,4.70
2022-11-27T05:13:39.623Z,4.70
2022-11-27T05:16:07.206Z,4.60
2022-11-27T05:18:34.866Z,4.60
2022-11-27T05:21:07.288Z,4.60
2022-11-27T05:23:35.520Z,4.60
2022-11-27T05:26:03.672Z,4.60
2022-11-27T05:28:30.869Z,4.50
2022-11-27T05:30:58.070Z,4.50
2022-11-27T05:33:25.331Z,4.40
2022-11-27T05:35:52.483Z,4.30
2022-11-27T05:38:19.751Z,4.30
2022-11-27T05:40:47.083Z,4.30
2022-11-27T05:43:14.378Z,4.20
2022-11-27T05:45:41.663Z,4.20
2022-11-27T05:48:09.013Z,4.10
2022-11-27T05:50:36.322Z,4.20
2022-11-27T05:53:03.527Z,4.10
2022-11-27T05:55:30.732Z,4.20
2022-11-27T05:57:57.976Z,4.20
2022-11-27T06:00:27.255Z,4.10
2022-11-27T06:02:55.720Z,4.10
2022-11-27T06:05:23.242Z,4.20
2022-11-27T06:07:50.435Z,4.10
2022-11-27T06:10:17.763Z,4.10
2022-11-27T06:12:45.136Z,4.10
2022-11-27T06:15:12.442Z,4.10
2022-11-27T06:17:39.718Z,4.00
2022-11-27T06:20:07.781Z,4.00
2022-11-27T06:22:35.029Z,4.00
2022-11-27T06:25:02.203Z,3.90
2022-11-27T06:27:34.247Z,3.90
2022-11-27T06:30:01.810Z,3.80
2022-11-27T06:32:30.787Z,3.80
2022-11-27T06:34:58.017Z,3.80
2022-11-27T06:37:25.255Z,3.80
2022-11-27T06:39:52.364Z,3.80
2022-11-27T06:42:19.542Z,3.80
2022-11-27T06:44:47.744Z,3.80
2022-11-27T06:47:15.367Z,3.70
2022-11-27T06:49:42.489Z,3.70
2022-11-27T06:52:09.688Z,3.70
2022-11-27T06:54:37.075Z,3.70
2022-11-27T06:57:04.450Z,3.60
2022-11-27T06:59:31.493Z,3.50
2022-11-27T07:01:58.748Z,3.50
2022-11-27T07:04:26.444Z,3.50
2022-11-27T07:06:55.548Z,3.50
2022-11-27T07:09:23.336Z,3.50
2022-11-27T07:11:51.038Z,3.40
2022-11-27T07:14:18.331Z,3.40
2022-11-27T07:16:45.799Z,3.40
2022-11-27T07:19:13.047Z,3.40
2022-11-27T07:21:40.742Z,3.40
2022-11-27T07:24:08.565Z,3.30
2022-11-27T07:26:35.967Z,3.30
2022-11-27T07:29:03.336Z,3.30
2022-11-27T07:31:32.014Z,3.30
2022-11-27T07:33:59.868Z,3.40
2022-11-27T07:36:30.486Z,3.50
2022-11-27T07:38:58.435Z,3.50
2022-11-27T07:41:30.582Z,3.50
2022-11-27T07:43:59.728Z,3.50
2022-11-27T07:46:27.549Z,3.60
2022-11-27T07:48:54.766Z,3.60
2022-11-27T07:51:23.462Z,3.60
2022-11-27T07:53:53.888Z,3.70
2022-11-27T07:56:21.542Z,3.70
2022-11-27T07:58:49.017Z,3.70
2022-11-27T08:01:19.436Z,3.80
2022-11-27T08:03:47.586Z,3.80
2022-11-27T08:06:17.962Z,3.80
2022-11-27T08:08:45.703Z,3.90
2022-11-27T08:11:34.303Z,3.90
2022-11-27T08:14:06.785Z,3.90
2022-11-27T08:16:35.760Z,4.00
2022-11-27T08:19:03.027Z,4.00
2022-11-27T08:21:31.861Z,4.00
2022-11-27T08:23:59.272Z,4.10
2022-11-27T08:26:28.018Z,4.10
2022-11-27T08:28:56.501Z,4.10
2022-11-27T08:31:24.256Z,4.10
2022-11-27T08:33:51.655Z,4.10
2022-11-27T08:36:19.055Z,4.10
2022-11-27T08:38:47.063Z,4.20
2022-11-27T08:41:14.969Z,4.20
2022-11-27T08:43:42.207Z,4.20
2022-11-27T08:46:09.714Z,4.20
2022-11-27T08:48:37.051Z,4.20
2022-11-27T08:51:13.802Z,4.30
2022-11-27T08:53:41.445Z,4.30
2022-11-27T08:56:11.980Z,4.30
2022-11-27T08:58:41.303Z,4.30
2022-11-27T09:01:15.194Z,4.30
2022-11-27T09:03:42.843Z,4.40
2022-11-27T09:06:12.719Z,4.40
2022-11-27T09:08:41.128Z,4.40
2022-11-27T09:11:09.923Z,4.40
2022-11-27T09:13:38.083Z,4.40
2022-11-27T09:16:06.720Z,4.50
2022-11-27T09:18:34.571Z,4.50
2022-11-27T09:21:09.543Z,4.40
2022-11-27T09:23:37.999Z,4.40
2022-11-27T09:26:08.642Z,4.50
2022-11-27T09:28:37.504Z,4.50
2022-11-27T09:31:07.116Z,4.60
2022-11-27T09:33:37.035Z,4.60
2022-11-27T09:36:08.995Z,4.60
2022-11-27T09:38:36.753Z,4.70
2022-11-27T09:41:29.646Z,4.70
2022-11-27T09:44:01.304Z,4.70
2022-11-27T09:46:42.114Z,4.70
2022-11-27T09:49:21.931Z,4.70
2022-11-27T09:51:59.323Z,4.70
2022-11-27T09:54:37.311Z,4.80
2022-11-27T09:57:05.856Z,4.90
2022-11-27T09:59:54.667Z,4.90
2022-11-27T10:02:30.012Z,4.90
2022-11-27T10:05:15.790Z,4.90
2022-11-27T10:08:06.410Z,4.90
2022-11-27T10:11:00.031Z,4.90
2022-11-27T10:14:04.801Z,5.00
2022-11-27T10:16:49.000Z,4.90
2022-11-27T10:19:19.166Z,4.90
2022-11-27T10:21:55.565Z,5.00
2022-11-27T10:24:55.208Z,4.90
2022-11-27T10:27:54.439Z,4.90
2022-11-27T10:30:22.636Z,5.00
2022-11-27T10:32:55.962Z,5.00
2022-11-27T10:35:31.141Z,5.00
2022-11-27T10:38:10.258Z,5.00
2022-11-27T10:41:00.007Z,5.00
2022-11-27T10:43:27.259Z,5.00
2022-11-27T10:46:04.200Z,5.10
2022-11-27T10:48:31.346Z,5.10
2022-11-27T10:50:59.869Z,5.20
2022-11-27T10:53:35.980Z,5.20
2022-11-27T10:56:12.737Z,5.20
2022-11-27T10:58:58.230Z,5.20
2022-11-27T11:01:28.525Z,5.10
2022-11-27T11:04:31.639Z,5.10
2022-11-27T11:06:58.158Z,5.10
2022-11-27T11:09:30.704Z,5.10
2022-11-27T11:12:19.922Z,5.00
2022-11-27T11:15:00.441Z,5.00
2022-11-27T11:17:34.626Z,4.80
2022-11-27T11:20:13.220Z,4.70
2022-11-27T11:22:47.730Z,4.70
2022-11-27T11:25:29.857Z,4.80
2022-11-27T11:27:57.277Z,4.90
2022-11-27T11:30:30.014Z,4.90
2022-11-27T11:33:02.567Z,5.00
2022-11-27T11:35:35.008Z,5.00
2022-11-27T11:38:05.815Z,5.10
2022-11-27T11:40:37.884Z,5.10
2022-11-27T11:43:21.545Z,5.10
2022-11-27T11:45:49.285Z,5.00
2022-11-27T11:48:22.288Z,5.00
2022-11-27T11:51:15.029Z,5.00
2022-11-27T11:54:02.325Z,5.00
2022-11-27T11:56:39.301Z,5.00
2022-11-27T11:59:30.475Z,4.90
2022-11-27T12:02:26.944Z,4.90
2022-11-27T12:05:15.796Z,4.90
2022-11-27T12:08:15.697Z,4.80
2022-11-27T12:10:57.917Z,4.70
2022-11-27T12:13:33.970Z,4.70
2022-11-27T12:17:02.817Z,4.60
2022-11-27T12:19:54.312Z,4.60
2022-11-27T12:22:29.949Z,4.70
2022-11-27T12:25:06.746Z,4.70
2022-11-27T12:28:12.003Z,4.80
2022-11-27T12:30:57.389Z,4.80
2022-11-27T12:34:02.258Z,4.90
2022-11-27T12:36:56.458Z,4.90
2022-11-27T12:39:29.489Z,4.90
2022-11-27T12:42:01.541Z,4.90
2022-11-27T12:44:56.075Z,4.90
2022-11-27T12:47:29.802Z,4.80
2022-11-27T12:50:03.166Z,4.80
2022-11-27T12:52:41.011Z,4.70
2022-11-27T12:55:26.922Z,4.70
2022-11-27T12:58:03.422Z,4.70
2022-11-27T13:00:34.984Z,4.70
2022-11-27T13:03:25.523Z,4.70
2022-11-27T13:06:00.186Z,4.70
2022-11-27T13:08:46.148Z,4.70
2022-11-27T13:11:20.281Z,4.70
2022-11-27T13:13:55.631Z,4.80
2022-11-27T13:16:34.803Z,4.80
2022-11-27T13:19:40.839Z,4.90
2022-11-27T13:22:22.352Z,4.90
2022-11-27T13:24:49.668Z,5.00
2022-11-27T13:27:23.823Z,5.00
2022-11-27T13:29:59.283Z,5.10
2022-11-27T13:32:33.214Z,5.10
2022-11-27T13:35:08.252Z,5.10
2022-11-27T13:37:41.325Z,5.20
2022-11-27T13:40:29.205Z,5.10
2022-11-27T13:42:59.663Z,5.20
2022-11-27T13:45:30.472Z,5.20
2022-11-27T13:48:01.102Z,5.20
2022-11-27T13:50:31.517Z,5.20
2022-11-27T13:53:06.503Z,5.30
2022-11-27T13:55:36.898Z,5.20
2022-11-27T13:58:06.025Z,5.30
2022-11-27T14:00:43.473Z,5.30
2022-11-27T14:03:30.862Z,5.30
2022-11-27T14:05:58.476Z,5.40
2022-11-27T14:08:31.050Z,5.30
2022-11-27T14:11:03.871Z,5.30
2022-11-27T14:13:47.062Z,5.20
2022-11-27T14:16:35.524Z,5.20
2022-11-27T14:19:06.255Z,5.20
2022-11-27T14:21:39.147Z,5.20
2022-11-27T14:24:36.310Z,5.20
2022-11-27T14:27:16.945Z,5.20
2022-11-27T14:29:44.355Z,5.20
2022-11-27T14:32:14.247Z,5.20
2022-11-27T14:34:42.434Z,5.20
2022-11-27T14:37:28.340Z,5.20
2022-11-27T14:39:55.854Z,5.30
2022-11-27T14:42:33.061Z,5.30
2022-11-27T14:45:15.578Z,5.30
2022-11-27T14:47:53.810Z,5.30
2022-11-27T14:50:22.469Z,5.30
2022-11-27T14:52:58.622Z,5.20
2022-11-27T14:55:31.546Z,5.20
2022-11-27T14:58:01.880Z,5.20
2022-11-27T15:00:29.327Z,5.30
2022-11-27T15:03:07.293Z,5.30
2022-11-27T15:05:36.759Z,5.30
2022-11-27T15:08:04.090Z,5.30
2022-11-27T15:10:37.935Z,5.30
2022-11-27T15:13:07.621Z,5.30
2022-11-27T15:15:45.004Z,5.30
2022-11-27T15:18:22.957Z,5.30
2022-11-27T15:20:52.122Z,5.30
2022-11-27T15:23:30.736Z,5.30
2022-11-27T15:26:00.763Z,5.40
2022-11-27T15:28:59.048Z,5.30
2022-11-27T15:31:30.821Z,5.40
2022-11-27T15:34:06.108Z,5.40
2022-11-27T15:36:37.470Z,5.40
2022-11-27T15:39:26.324Z,5.40
2022-11-27T15:42:04.927Z,5.40
2022-11-27T15:44:33.189Z,5.40
2022-11-27T15:47:02.723Z,5.40
2022-11-27T15:49:30.161Z,5.40
2022-11-27T15:51:57.761Z,5.40
2022-11-27T15:54:25.572Z,5.40
2022-11-27T15:56:52.916Z,5.40
2022-11-27T15:59:22.921Z,5.40
2022-11-27T16:01:50.254Z,5.30
2022-11-27T16:04:17.963Z,5.40
2022-11-27T16:06:45.154Z,5.40
2022-11-27T16:09:12.756Z,5.40
2022-11-27T16:11:39.882Z,5.40
2022-11-27T16:14:07.094Z,5.40
2022-11-27T16:16:35.630Z,5.40
2022-11-27T16:19:05.837Z,5.40
2022-11-27T16:21:35.428Z,5.40
2022-11-27T16:24:05.909Z,5.40
2022-11-27T16:26:33.595Z,5.50
2022-11-27T16:29:01.401Z,5.50
2022-11-27T16:31:29.725Z,5.50
2022-11-27T16:33:56.894Z,5.50
2022-11-27T16:36:24.439Z,5.50
2022-11-27T16:38:55.791Z,5.50
2022-11-27T16:41:24.080Z,5.50
2022-11-27T16:43:53.838Z,5.60
2022-11-27T16:46:27.014Z,5.60
2022-11-27T16:48:56.511Z,5.60
2022-11-27T16:51:30.138Z,5.60
2022-11-27T16:53:58.501Z,5.60
2022-11-27T16:56:28.252Z,5.60
2022-11-27T16:59:02.325Z,5.60
2022-11-27T17:01:36.127Z,5.70
2022-11-27T17:04:10.187Z,5.70
2022-11-27T17:06:38.757Z,5.70
2022-11-27T17:09:08.426Z,5.70
2022-11-27T17:11:38.017Z,5.70
2022-11-27T17:14:08.185Z,5.70
2022-11-27T17:16:36.853Z,5.70
2022-11-27T17:19:04.151Z,5.80
2022-11-27T17:21:33.862Z,5.80
2022-11-27T17:24:13.158Z,5.80
2022-11-27T17:26:44.901Z,5.80
2022-11-27T17:29:14.254Z,5.80
2022-11-27T17:31:42.318Z,5.80
2022-11-27T17:34:15.082Z,5.80
2022-11-27T17:36:44.815Z,5.80
2022-11-27T17:39:13.775Z,5.80
2022-11-27T17:41:41.989Z,5.80
2022-11-27T17:44:09.241Z,5.90
2022-11-27T17:46:37.466Z,5.90
2022-11-27T17:49:07.088Z,5.90
2022-11-27T17:51:36.011Z,5.90
2022-11-27T17:54:05.678Z,5.90
2022-11-27T17:56:34.779Z,5.90
2022-11-27T17:59:04.705Z,5.90
2022-11-27T18:01:33.850Z,5.90
2022-11-27T18:04:03.749Z,5.90
2022-11-27T18:06:32.312Z,5.90
2022-11-27T18:09:00.341Z,5.90
2022-11-27T18:11:30.600Z,5.90
2022-11-27T18:13:58.049Z,5.90
2022-11-27T18:16:31.306Z,5.80
2022-11-27T18:19:00.542Z,5.90
2022-11-27T18:21:28.822Z,5.80
2022-11-27T18:27:07.143Z,5.80
2022-11-27T18:29:31.784Z,5.90
2022-11-27T18:31:59.129Z,5.80
2022-11-27T18:34:26.338Z,5.80
2022-11-27T18:36:59.733Z,5.80
2022-11-27T18:39:27.787Z,5.90
2022-11-27T18:41:54.972Z,5.80
2022-11-27T18:44:22.030Z,5.90
2022-11-27T18:46:49.312Z,5.80
2022-11-27T18:49:16.657Z,5.80
2022-11-27T18:51:43.871Z,5.80
2022-11-27T18:54:11.126Z,5.80
2022-11-27T18:56:38.556Z,5.80
2022-11-27T18:59:07.258Z,5.90
2022-11-27T19:01:41.197Z,5.80
2022-11-27T19:04:10.547Z,5.80
2022-11-27T19:06:39.331Z,5.80
2022-11-27T19:09:06.757Z,5.80
2022-11-27T19:11:35.279Z,5.80
2022-11-27T19:14:02.446Z,5.80
2022-11-27T19:16:32.833Z,5.80
2022-11-27T19:19:02.019Z,5.80
2022-11-27T19:21:33.986Z,5.80
2022-11-27T19:24:03.771Z,5.90
2022-11-27T19:26:33.754Z,5.90
2022-11-27T19:29:03.924Z,5.90
2022-11-27T19:31:33.351Z,5.90
2022-11-27T19:34:02.979Z,5.80
2022-11-27T19:36:32.774Z,5.80
2022-11-27T19:39:06.153Z,5.80
2022-11-27T19:41:34.055Z,5.80
2022-11-27T19:44:05.287Z,5.90
2022-11-27T19:46:35.535Z,5.90
2022-11-27T19:49:05.644Z,5.90
2022-11-27T19:51:35.212Z,5.90
2022-11-27T19:54:07.069Z,5.90
2022-11-27T19:56:39.167Z,5.90
2022-11-27T19:59:06.969Z,5.90
2022-11-27T20:01:34.406Z,5.90
2022-11-27T20:04:03.457Z,5.90
2022-11-27T20:06:31.059Z,5.90
2022-11-27T20:09:03.818Z,5.90
2022-11-27T20:11:35.017Z,5.90
2022-11-27T20:14:04.674Z,5.90
2022-11-27T20:16:32.413Z,5.90
2022-11-27T20:19:00.636Z,5.90
2022-11-27T20:21:27.999Z,5.90
2022-11-27T20:23:57.222Z,5.90
2022-11-27T20:26:27.223Z,5.90
2022-11-27T20:28:54.825Z,5.90
2022-11-27T20:31:29.117Z,5.90
2022-11-27T20:33:58.532Z,6.00
2022-11-27T20:36:26.823Z,6.00
2022-11-27T20:38:57.385Z,6.10
2022-11-27T20:41:26.094Z,6.10
2022-11-27T20:43:59.218Z,6.10
2022-11-27T20:46:27.443Z,6.10
2022-11-27T20:48:56.061Z,6.10
2022-11-27T20:51:27.899Z,6.10
2022-11-27T20:53:56.532Z,6.10
2022-11-27T20:56:24.044Z,6.10
2022-11-27T20:58:51.298Z,6.10
2022-11-27T21:01:30.655Z,6.10
2022-11-27T21:04:00.633Z,6.10
2022-11-27T21:06:30.409Z,6.10
2022-11-27T21:09:01.427Z,6.10
2022-11-27T21:11:30.363Z,6.10
2022-11-27T21:14:00.283Z,6.10
2022-11-27T21:16:29.876Z,6.10
2022-11-27T21:19:01.782Z,6.10
2022-11-27T21:21:29.735Z,6.10
2022-11-27T21:23:58.153Z,6.00
2022-11-27T21:26:25.670Z,6.10
2022-11-27T21:28:53.036Z,6.10
2022-11-27T21:31:23.041Z,6.10
2022-11-27T21:33:55.527Z,6.10
2022-11-27T21:36:29.226Z,6.10
2022-11-27T21:39:07.191Z,6.10
2022-11-27T21:41:34.631Z,6.10
2022-11-27T21:44:03.044Z,6.10
2022-11-27T21:46:31.285Z,6.10
2022-11-27T21:49:00.872Z,6.10
2022-11-27T21:51:29.842Z,6.10
2022-11-27T21:53:58.893Z,6.10
2022-11-27T21:56:29.533Z,6.10
2022-11-27T21:58:56.817Z,6.10
2022-11-27T22:01:25.466Z,6.10
2022-11-27T22:03:57.604Z,6.10
2022-11-27T22:06:28.690Z,6.10
2022-11-27T22:08:57.878Z,6.20
2022-11-27T22:11:29.017Z,6.20
2022-11-27T22:14:00.873Z,6.20
2022-11-27T22:16:30.344Z,6.10
2022-11-27T22:18:59.478Z,6.10
2022-11-27T22:21:28.103Z,6.10
2022-11-27T22:23:56.173Z,6.10
2022-11-27T22:26:25.091Z,6.10
2022-11-27T22:28:52.658Z,6.10
2022-11-27T22:31:29.912Z,6.20
2022-11-27T22:33:58.335Z,6.10
2022-11-27T22:36:31.636Z,6.10
2022-11-27T22:39:01.237Z,6.20
2022-11-27T22:41:30.613Z,6.20
2022-11-27T22:44:00.485Z,6.20
2022-11-27T22:46:32.880Z,6.20
2022-11-27T22:49:04.934Z,6.20
2022-11-27T22:51:34.597Z,6.10
2022-11-27T22:54:02.953Z,6.10
2022-11-27T22:56:30.184Z,6.10
2022-11-27T22:59:24.835Z,6.10
2022-11-27T23:01:46.476Z,6.10
2022-11-27T23:04:13.743Z,6.10
2022-11-27T23:06:40.807Z,6.10
2022-11-27T23:09:08.114Z,6.10
2022-11-27T23:11:35.280Z,6.10
2022-11-27T23:14:02.354Z,6.10
2022-11-27T23:16:29.499Z,6.10
2022-11-27T23:18:56.710Z,6.10
2022-11-27T23:21:25.176Z,6.10
2022-11-27T23:23:53.039Z,6.10
2022-11-27T23:26:22.258Z,6.10
2022-11-27T23:28:52.777Z,6.10
2022-11-27T23:31:31.196Z,6.10
2022-11-27T23:34:02.171Z,6.10
2022-11-27T23:36:32.177Z,6.10
2022-11-27T23:39:04.118Z,6.10
2022-11-27T23:41:32.242Z,6.10
2022-11-27T23:43:59.554Z,6.10
2022-11-27T23:46:29.211Z,6.10
2022-11-27T23:48:59.279Z,6.10
2022-11-27T23:51:30.751Z,6.10
2022-11-27T23:53:58.907Z,6.10
2022-11-27T23:56:31.028Z,6.10
2022-11-27T23:58:58.750Z,6.10
